Time;durP1;ratioP1;P1;durP2;ratioP2;P2;SDS_P1;SDS_P2;PMS_P1;PMS_P2;Temp;Humidity;BMP_temperature;BMP_pressure;BME280_temperature;BME280_humidity;BME280_pressure;Samples;Min_cycle;Max_cycle;Signal;HPM_P1;HPM_P2
2024/01/22 00:00:10;;;;;;;8.10;4.30;;;6.30;99.90;;;;;;5099308;28;20027;-41
2024/01/22 00:02:36;;;;;;;10.63;3.90;;;6.30;99.90;;;;;;5099173;28;20047;-41
2024/01/22 00:05:02;;;;;;;10.10;4.03;;;6.30;99.90;;;;;;5098239;28;20035;-41
2024/01/22 00:07:27;;;;;;;10.50;4.22;;;6.30;99.90;;;;;;5101633;28;20028;-41
2024/01/22 00:09:53;;;;;;;8.60;3.90;;;6.30;99.90;;;;;;5098517;28;20492;-40
2024/01/22 00:12:19;;;;;;;8.07;3.83;;;6.40;99.90;;;;;;5100618;28;20043;-48
2024/01/22 00:14:46;;;;;;;12.90;4.13;;;6.50;99.90;;;;;;5098225;28;20024;-42
2024/01/22 00:17:12;;;;;;;8.48;3.47;;;6.50;99.90;;;;;;5099900;28;20032;-40
2024/01/22 00:19:38;;;;;;;10.43;4.47;;;6.50;99.90;;;;;;5100101;28;20024;-40
2024/01/22 00:22:03;;;;;;;6.90;3.75;;;6.60;99.90;;;;;;5093972;28;20108;-43
2024/01/22 00:24:29;;;;;;;9.40;3.88;;;6.50;99.90;;;;;;5101869;28;20019;-42
2024/01/22 00:26:55;;;;;;;9.57;3.78;;;6.60;99.90;;;;;;5098091;28;20023;-40
2024/01/22 00:29:20;;;;;;;8.98;3.72;;;6.60;99.90;;;;;;5100816;28;20439;-41
2024/01/22 00:31:46;;;;;;;9.60;4.13;;;6.60;99.90;;;;;;5098979;28;20023;-40
2024/01/22 00:34:11;;;;;;;10.52;3.97;;;6.70;99.90;;;;;;5098486;28;20032;-40
2024/01/22 00:36:37;;;;;;;7.15;3.70;;;6.70;99.90;;;;;;5099034;28;20106;-41
2024/01/22 00:39:02;;;;;;;8.38;4.00;;;6.60;99.90;;;;;;5096160;28;20028;-41
2024/01/22 00:41:28;;;;;;;9.43;4.35;;;6.70;99.90;;;;;;5097048;28;20024;-40
2024/01/22 00:43:53;;;;;;;6.68;3.47;;;6.70;99.90;;;;;;5098323;28;20012;-41
2024/01/22 00:46:19;;;;;;;6.65;3.33;;;6.80;99.90;;;;;;5100718;28;20367;-41
2024/01/22 00:48:45;;;;;;;7.93;3.95;;;6.80;99.90;;;;;;5099756;28;20207;-40
2024/01/22 00:51:10;;;;;;;8.75;3.72;;;6.90;99.90;;;;;;5099162;28;20032;-40
2024/01/22 00:53:36;;;;;;;8.43;3.63;;;6.80;99.90;;;;;;5096443;28;20233;-40
2024/01/22 00:56:02;;;;;;;5.75;3.22;;;6.80;99.90;;;;;;5096580;28;20127;-40
2024/01/22 00:58:27;;;;;;;8.63;3.55;;;6.80;99.90;;;;;;5100270;28;20038;-41
2024/01/22 01:00:54;;;;;;;10.20;4.40;;;6.80;99.90;;;;;;5098600;28;20035;-40
2024/01/22 01:03:19;;;;;;;4.97;3.03;;;6.90;99.90;;;;;;5101144;28;20188;-41
2024/01/22 01:05:45;;;;;;;8.98;3.15;;;7.00;99.90;;;;;;5099442;28;20396;-40
2024/01/22 01:08:11;;;;;;;8.15;3.28;;;7.00;99.90;;;;;;5099457;28;20112;-40
2024/01/22 01:10:37;;;;;;;9.85;3.47;;;7.00;99.90;;;;;;5100796;28;20028;-41
2024/01/22 01:13:03;;;;;;;6.78;2.92;;;7.00;99.90;;;;;;5098188;28;20017;-41
2024/01/22 01:15:28;;;;;;;8.35;3.13;;;7.00;99.90;;;;;;5101469;28;20019;-41
2024/01/22 01:17:54;;;;;;;7.40;3.40;;;7.00;99.90;;;;;;5098470;28;20036;-41
2024/01/22 01:20:19;;;;;;;9.48;3.25;;;7.00;99.90;;;;;;5101701;28;20503;-40
2024/01/22 01:22:45;;;;;;;7.93;3.10;;;7.00;99.90;;;;;;5100310;28;20051;-41
2024/01/22 01:25:10;;;;;;;7.90;3.63;;;7.10;99.90;;;;;;5099696;28;20217;-41
2024/01/22 01:27:36;;;;;;;8.50;3.50;;;7.10;99.90;;;;;;5098275;28;20106;-41
2024/01/22 01:30:02;;;;;;;7.93;3.28;;;7.20;99.90;;;;;;5098551;28;20024;-40
2024/01/22 01:32:28;;;;;;;8.25;3.25;;;7.20;99.90;;;;;;5106138;28;20027;-41
2024/01/22 01:34:53;;;;;;;6.75;2.85;;;7.20;99.90;;;;;;5101443;28;20024;-40
2024/01/22 01:37:19;;;;;;;7.95;3.40;;;7.20;99.90;;;;;;5105095;28;20066;-40
2024/01/22 01:39:45;;;;;;;7.28;2.80;;;7.20;99.90;;;;;;5104157;28;20036;-40
2024/01/22 01:42:10;;;;;;;7.50;3.05;;;7.20;99.90;;;;;;5102103;28;20047;-41
2024/01/22 01:44:39;;;;;;;5.78;2.65;;;7.20;99.90;;;;;;5105593;28;20098;-41
2024/01/22 01:47:05;;;;;;;8.07;3.05;;;7.20;99.90;;;;;;5102767;28;20123;-41
2024/01/22 01:49:31;;;;;;;10.10;3.22;;;7.20;99.90;;;;;;5104122;28;20111;-41
2024/01/22 01:51:57;;;;;;;7.05;3.90;;;7.20;99.90;;;;;;5102301;28;20031;-40
2024/01/22 01:54:24;;;;;;;5.97;3.10;;;7.30;99.90;;;;;;5105353;28;20476;-41
2024/01/22 01:56:51;;;;;;;7.50;2.78;;;7.20;99.90;;;;;;5103589;28;20031;-41
2024/01/22 01:59:18;;;;;;;7.70;3.53;;;7.20;99.90;;;;;;5104694;28;20055;-41
2024/01/22 02:01:44;;;;;;;8.10;3.30;;;7.00;99.90;;;;;;5103845;28;20019;-42
2024/01/22 02:04:09;;;;;;;7.53;2.67;;;7.10;99.90;;;;;;5103477;28;20050;-40
2024/01/22 02:06:35;;;;;;;5.50;2.80;;;7.00;99.90;;;;;;5104178;28;20032;-41
2024/01/22 02:09:00;;;;;;;6.38;2.88;;;7.00;99.90;;;;;;5102166;28;20389;-42
2024/01/22 02:11:26;;;;;;;5.65;3.15;;;7.00;99.90;;;;;;5105741;28;20031;-42
2024/01/22 02:13:52;;;;;;;7.63;3.38;;;6.90;99.90;;;;;;5103790;28;20038;-40
2024/01/22 02:16:18;;;;;;;7.53;3.40;;;7.00;99.90;;;;;;5104707;28;20047;-40
2024/01/22 02:18:44;;;;;;;8.30;3.20;;;7.10;99.90;;;;;;5104428;28;20468;-40
2024/01/22 02:21:10;;;;;;;8.60;4.20;;;7.10;99.90;;;;;;5102481;28;20043;-40
2024/01/22 02:23:35;;;;;;;7.88;3.00;;;7.10;99.90;;;;;;5092106;28;20422;-40
2024/01/22 02:26:01;;;;;;;7.53;2.78;;;7.20;99.90;;;;;;5091670;28;20558;-40
2024/01/22 02:28:28;;;;;;;8.10;3.03;;;7.20;99.90;;;;;;5092996;28;20028;-40
2024/01/22 02:30:54;;;;;;;9.73;2.83;;;7.20;99.90;;;;;;5091174;28;20115;-41
2024/01/22 02:33:19;;;;;;;7.07;3.05;;;7.20;99.90;;;;;;5104122;28;20688;-40
2024/01/22 02:35:45;;;;;;;6.97;2.72;;;7.30;99.90;;;;;;5103655;28;20023;-40
2024/01/22 02:38:10;;;;;;;7.47;2.50;;;7.30;99.90;;;;;;5102916;28;20024;-40
2024/01/22 02:40:36;;;;;;;8.15;2.72;;;7.20;99.90;;;;;;5104530;28;20035;-40
2024/01/22 02:43:02;;;;;;;6.78;2.60;;;7.30;99.90;;;;;;5101939;28;20385;-40
2024/01/22 02:45:27;;;;;;;5.53;2.60;;;7.30;99.90;;;;;;5105567;28;20042;-40
2024/01/22 02:47:53;;;;;;;4.30;2.58;;;7.20;99.90;;;;;;5101593;28;20100;-41
2024/01/22 02:50:18;;;;;;;2.88;2.30;;;7.10;99.90;;;;;;5102438;28;20052;-40
2024/01/22 02:52:44;;;;;;;5.35;3.25;;;7.10;99.90;;;;;;5102416;28;20082;-40
2024/01/22 02:55:10;;;;;;;7.10;2.65;;;7.10;99.90;;;;;;5103117;28;20050;-40
2024/01/22 02:57:35;;;;;;;7.82;3.20;;;7.20;99.90;;;;;;5097906;28;20035;-40
2024/01/22 03:00:01;;;;;;;7.63;2.72;;;7.30;99.90;;;;;;5101862;28;20069;-40
2024/01/22 03:02:27;;;;;;;6.45;2.50;;;7.50;99.90;;;;;;5099556;28;20068;-40
2024/01/22 03:04:53;;;;;;;5.30;2.78;;;7.50;99.90;;;;;;5091770;28;20469;-46
2024/01/22 03:07:18;;;;;;;4.25;2.47;;;7.50;99.90;;;;;;5095618;28;20032;-40
2024/01/22 03:09:44;;;;;;;7.13;2.78;;;7.50;99.90;;;;;;5104042;28;20117;-40
2024/01/22 03:12:09;;;;;;;3.58;2.35;;;7.60;99.90;;;;;;5102476;28;20024;-39
2024/01/22 03:14:35;;;;;;;7.38;2.75;;;7.60;99.90;;;;;;5104106;28;20030;-41
2024/01/22 03:17:00;;;;;;;7.57;3.00;;;7.60;99.90;;;;;;5102011;28;20024;-40
2024/01/22 03:19:26;;;;;;;4.07;2.40;;;7.60;99.90;;;;;;5104804;28;20096;-40
2024/01/22 03:21:51;;;;;;;5.68;2.58;;;7.50;99.90;;;;;;5103013;28;20110;-40
2024/01/22 03:24:17;;;;;;;5.88;2.88;;;7.60;99.90;;;;;;5104025;28;20411;-40
2024/01/22 03:26:42;;;;;;;5.10;2.75;;;7.80;99.90;;;;;;5104645;28;20019;-40
2024/01/22 03:29:08;;;;;;;6.25;3.22;;;7.80;99.90;;;;;;5102849;28;20161;-40
2024/01/22 03:31:37;;;;;;;4.50;2.58;;;8.00;99.90;;;;;;5104689;28;20068;-40
2024/01/22 03:34:03;;;;;;;4.65;2.58;;;8.10;99.90;;;;;;5102189;28;20016;-40
2024/01/22 03:36:28;;;;;;;6.60;2.85;;;8.10;99.90;;;;;;5099406;28;20028;-40
2024/01/22 03:38:54;;;;;;;5.85;2.60;;;8.10;99.90;;;;;;5101381;28;20091;-40
2024/01/22 03:41:20;;;;;;;6.75;2.63;;;8.20;99.90;;;;;;5104006;28;20034;-40
2024/01/22 03:43:46;;;;;;;4.82;2.58;;;8.20;99.90;;;;;;5104041;28;20042;-40
2024/01/22 03:46:12;;;;;;;5.68;2.53;;;8.20;99.90;;;;;;5102903;28;20035;-40
2024/01/22 03:48:38;;;;;;;4.90;2.40;;;8.20;99.90;;;;;;5105380;28;20090;-40
2024/01/22 03:51:04;;;;;;;4.90;2.45;;;8.30;99.90;;;;;;5100387;28;20613;-40
2024/01/22 03:53:30;;;;;;;4.05;2.58;;;8.30;99.90;;;;;;5102703;28;20103;-40
2024/01/22 03:55:56;;;;;;;6.43;2.45;;;8.40;99.90;;;;;;5102687;28;20107;-40
2024/01/22 03:58:21;;;;;;;5.63;2.55;;;8.40;99.90;;;;;;5098190;28;20028;-40
2024/01/22 04:00:47;;;;;;;7.00;2.85;;;8.50;99.90;;;;;;5103531;28;20008;-40
2024/01/22 04:03:12;;;;;;;5.68;2.63;;;8.40;99.90;;;;;;5103031;28;20373;-40
2024/01/22 04:05:38;;;;;;;8.55;2.60;;;8.50;99.90;;;;;;5104761;28;20103;-40
2024/01/22 04:08:04;;;;;;;4.50;2.63;;;8.40;99.90;;;;;;5100741;28;20055;-40
2024/01/22 04:10:30;;;;;;;4.82;2.35;;;8.40;99.90;;;;;;5104351;28;20080;-40
2024/01/22 04:12:56;;;;;;;3.05;2.38;;;8.50;99.90;;;;;;5102604;28;20028;-40
2024/01/22 04:15:21;;;;;;;7.85;2.88;;;8.60;99.90;;;;;;5104301;28;20259;-40
2024/01/22 04:17:47;;;;;;;9.13;3.33;;;8.50;99.90;;;;;;5103871;28;20468;-40
2024/01/22 04:20:13;;;;;;;5.32;2.65;;;8.60;99.90;;;;;;5102634;28;20023;-41
2024/01/22 04:22:38;;;;;;;6.80;2.85;;;8.60;99.90;;;;;;5104669;28;20016;-42
2024/01/22 04:25:04;;;;;;;3.88;2.58;;;8.60;99.90;;;;;;5102111;28;20078;-41
2024/01/22 04:27:30;;;;;;;3.90;2.25;;;8.60;99.90;;;;;;5104928;28;20068;-41
2024/01/22 04:29:56;;;;;;;4.30;2.42;;;8.60;99.90;;;;;;5102838;28;20396;-40
2024/01/22 04:32:21;;;;;;;7.20;2.65;;;8.60;99.90;;;;;;5103866;28;20491;-40
2024/01/22 04:34:47;;;;;;;3.65;2.25;;;8.60;99.90;;;;;;5103878;28;20112;-40
2024/01/22 04:37:13;;;;;;;6.68;2.83;;;8.60;99.90;;;;;;5102724;28;20153;-40
2024/01/22 04:39:40;;;;;;;5.80;2.83;;;8.60;99.90;;;;;;5104394;28;20038;-41
2024/01/22 04:42:06;;;;;;;4.70;2.65;;;8.50;99.90;;;;;;5101919;28;20020;-40
2024/01/22 04:44:31;;;;;;;5.63;2.42;;;8.60;99.90;;;;;;5104368;28;20396;-41
2024/01/22 04:46:57;;;;;;;3.38;2.30;;;8.50;99.90;;;;;;5101252;28;20380;-42
2024/01/22 04:49:23;;;;;;;8.60;3.80;;;8.50;99.90;;;;;;5105306;28;20084;-40
2024/01/22 04:51:49;;;;;;;3.95;2.45;;;8.50;99.90;;;;;;5103421;28;20035;-41
2024/01/22 04:54:14;;;;;;;5.57;2.95;;;8.50;99.90;;;;;;5103137;28;20024;-40
2024/01/22 04:56:47;;;;;;;4.05;2.58;;;8.50;99.90;;;;;;5104482;28;20032;-41
2024/01/22 04:59:13;;;;;;;8.32;2.50;;;8.50;99.90;;;;;;5102521;28;20493;-41
2024/01/22 05:01:38;;;;;;;8.52;2.50;;;8.50;99.90;;;;;;5104274;28;20063;-42
2024/01/22 05:04:04;;;;;;;4.72;2.45;;;8.50;99.90;;;;;;5102427;28;20024;-40
2024/01/22 05:06:30;;;;;;;3.33;2.05;;;8.50;99.90;;;;;;5095668;28;20081;-40
2024/01/22 05:08:56;;;;;;;6.80;2.45;;;8.50;99.90;;;;;;5101086;28;20023;-41
2024/01/22 05:11:22;;;;;;;4.07;2.33;;;8.50;99.90;;;;;;5103896;28;20032;-40
2024/01/22 05:13:53;;;;;;;5.07;2.40;;;8.50;99.90;;;;;;5104175;28;20640;-40
2024/01/22 05:16:20;;;;;;;4.30;2.65;;;8.60;99.90;;;;;;5103405;28;20024;-40
2024/01/22 05:18:47;;;;;;;5.97;2.50;;;8.50;99.90;;;;;;5104459;28;20028;-40
2024/01/22 05:21:13;;;;;;;5.05;2.40;;;8.50;99.90;;;;;;5102933;28;20008;-40
2024/01/22 05:23:39;;;;;;;4.45;2.60;;;8.50;99.90;;;;;;5103501;28;20364;-40
2024/01/22 05:26:07;;;;;;;3.50;2.20;;;8.60;99.90;;;;;;5100828;28;20026;-40
2024/01/22 05:28:34;;;;;;;7.10;2.33;;;8.60;99.90;;;;;;5104597;28;20065;-41
2024/01/22 05:31:00;;;;;;;6.18;2.38;;;8.60;99.90;;;;;;5102488;28;20015;-40
2024/01/22 05:33:27;;;;;;;4.32;2.42;;;8.60;99.90;;;;;;5095106;28;20016;-40
2024/01/22 05:35:53;;;;;;;6.60;2.33;;;8.50;99.90;;;;;;5103532;28;20022;-40
2024/01/22 05:38:19;;;;;;;7.35;2.22;;;8.60;99.90;;;;;;5101487;28;20019;-41
2024/01/22 05:40:45;;;;;;;8.63;2.38;;;8.60;99.90;;;;;;5094277;28;20024;-40
2024/01/22 05:43:10;;;;;;;4.03;1.80;;;8.60;99.90;;;;;;5097223;28;20044;-40
2024/01/22 05:45:36;;;;;;;3.58;2.05;;;8.60;99.90;;;;;;5104554;28;20087;-40
2024/01/22 05:48:02;;;;;;;4.70;2.03;;;8.70;99.90;;;;;;5102025;28;20369;-40
2024/01/22 05:50:27;;;;;;;4.82;2.28;;;8.70;99.90;;;;;;5102805;28;20495;-41
2024/01/22 05:52:53;;;;;;;6.30;2.15;;;8.70;99.90;;;;;;5103479;28;20024;-40
2024/01/22 05:55:18;;;;;;;5.35;2.08;;;8.70;99.90;;;;;;5103304;28;20024;-40
2024/01/22 05:57:44;;;;;;;6.57;2.47;;;8.70;99.90;;;;;;5104656;28;20141;-40
2024/01/22 06:00:13;;;;;;;5.55;2.20;;;8.80;99.90;;;;;;5102569;28;20062;-40
2024/01/22 06:02:42;;;;;;;7.18;2.05;;;8.70;99.90;;;;;;5100292;28;20024;-40
2024/01/22 06:05:09;;;;;;;5.50;2.28;;;8.70;99.90;;;;;;5103391;28;20592;-40
2024/01/22 06:07:36;;;;;;;5.88;2.17;;;8.70;99.90;;;;;;5104532;28;20469;-40
2024/01/22 06:10:02;;;;;;;3.25;2.45;;;8.70;99.90;;;;;;5102344;28;20020;-40
2024/01/22 06:12:28;;;;;;;4.43;1.65;;;8.70;99.90;;;;;;5104222;28;20020;-40
2024/01/22 06:14:54;;;;;;;6.95;2.38;;;8.70;99.90;;;;;;5102276;28;20128;-41
2024/01/22 06:17:20;;;;;;;4.75;2.40;;;8.70;99.90;;;;;;5106428;28;20024;-40
2024/01/22 06:19:45;;;;;;;7.40;2.38;;;8.70;99.90;;;;;;5108838;28;20015;-40
2024/01/22 06:22:12;;;;;;;4.05;2.20;;;8.60;99.90;;;;;;5100646;28;20459;-41
2024/01/22 06:24:40;;;;;;;4.00;2.10;;;8.50;99.90;;;;;;5108582;28;20019;-41
2024/01/22 06:27:06;;;;;;;5.75;2.50;;;8.50;99.90;;;;;;5106751;28;20215;-41
2024/01/22 06:29:35;;;;;;;5.93;2.30;;;8.30;99.90;;;;;;5108602;28;20023;-40
2024/01/22 06:32:00;;;;;;;5.80;2.40;;;8.20;99.90;;;;;;5106332;28;20043;-42
2024/01/22 06:34:26;;;;;;;6.13;2.78;;;8.10;99.90;;;;;;5108399;28;20062;-40
2024/01/22 06:36:52;;;;;;;5.72;2.60;;;8.00;99.90;;;;;;5107402;28;20054;-42
2024/01/22 06:39:17;;;;;;;5.00;2.60;;;8.00;99.90;;;;;;5107123;28;20451;-39
2024/01/22 06:41:43;;;;;;;5.50;2.17;;;8.00;99.90;;;;;;5106546;28;20020;-39
2024/01/22 06:44:09;;;;;;;4.97;2.83;;;7.90;99.90;;;;;;5105043;28;20670;-38
2024/01/22 06:46:34;;;;;;;6.40;2.65;;;7.90;99.90;;;;;;5107837;28;20016;-39
2024/01/22 06:49:00;;;;;;;5.80;2.90;;;7.90;99.90;;;;;;5105301;28;20031;-39
2024/01/22 06:51:29;;;;;;;6.95;2.38;;;7.90;99.90;;;;;;5099950;28;20023;-39
2024/01/22 06:53:54;;;;;;;4.07;2.33;;;7.90;99.90;;;;;;5107236;28;20492;-39
2024/01/22 06:56:22;;;;;;;6.63;2.88;;;7.90;99.90;;;;;;5104421;28;20028;-39
2024/01/22 06:58:48;;;;;;;15.20;3.38;;;7.90;99.90;;;;;;5104471;28;20008;-39
2024/01/22 07:01:14;;;;;;;4.07;2.33;;;7.90;99.90;;;;;;5105017;28;20540;-39
2024/01/22 07:03:39;;;;;;;4.88;2.63;;;7.90;99.90;;;;;;5106564;28;20039;-39
2024/01/22 07:06:05;;;;;;;4.53;2.22;;;8.00;99.90;;;;;;5104968;28;20046;-39
2024/01/22 07:08:31;;;;;;;4.15;1.92;;;8.00;99.90;;;;;;5106259;28;20080;-39
2024/01/22 07:10:58;;;;;;;5.40;2.33;;;8.00;99.90;;;;;;5105112;28;20022;-39
2024/01/22 07:13:23;;;;;;;5.78;2.10;;;8.10;99.90;;;;;;5104748;28;20099;-39
2024/01/22 07:15:49;;;;;;;2.97;1.85;;;8.20;99.90;;;;;;5107406;28;20099;-39
2024/01/22 07:18:15;;;;;;;3.13;2.00;;;8.20;99.90;;;;;;5106543;28;20091;-39
2024/01/22 07:20:40;;;;;;;3.90;2.55;;;8.20;99.90;;;;;;5107970;28;20011;-39
2024/01/22 07:23:06;;;;;;;5.72;2.22;;;8.30;99.90;;;;;;5106977;28;20027;-40
2024/01/22 07:25:36;;;;;;;4.47;2.30;;;8.30;99.90;;;;;;5108004;28;20015;-39
2024/01/22 07:28:02;;;;;;;5.85;2.22;;;8.30;99.90;;;;;;5105563;28;20111;-39
2024/01/22 07:30:28;;;;;;;4.07;1.92;;;8.40;99.90;;;;;;5107956;28;20136;-39
2024/01/22 07:32:54;;;;;;;4.18;2.05;;;8.40;99.90;;;;;;5108246;28;20027;-39
2024/01/22 07:35:20;;;;;;;7.95;2.25;;;8.40;99.90;;;;;;5105734;28;20508;-41
2024/01/22 07:37:45;;;;;;;3.88;2.00;;;8.50;99.90;;;;;;5106404;28;20051;-39
2024/01/22 07:40:11;;;;;;;5.80;1.98;;;8.50;99.90;;;;;;5101416;28;20084;-39
2024/01/22 07:42:38;;;;;;;4.65;2.00;;;8.50;99.90;;;;;;5107025;28;20020;-39
2024/01/22 07:45:06;;;;;;;3.35;1.90;;;8.50;99.90;;;;;;5106499;28;20020;-40
2024/01/22 07:47:33;;;;;;;6.53;2.30;;;8.50;99.90;;;;;;5097055;28;20027;-39
2024/01/22 07:49:59;;;;;;;5.03;2.03;;;8.60;99.90;;;;;;5090737;28;20031;-39
2024/01/22 07:52:24;;;;;;;2.45;1.70;;;8.60;99.90;;;;;;5096052;28;20690;-39
2024/01/22 07:54:50;;;;;;;5.80;2.35;;;8.60;99.90;;;;;;5101065;28;20027;-39
2024/01/22 07:57:16;;;;;;;4.63;2.22;;;8.60;99.90;;;;;;5106362;28;20107;-39
2024/01/22 07:59:42;;;;;;;4.45;2.00;;;8.70;99.90;;;;;;5108080;28;20054;-39
2024/01/22 08:02:08;;;;;;;5.32;2.60;;;8.70;99.90;;;;;;5106505;27;20027;-39
2024/01/22 08:04:35;;;;;;;6.68;2.00;;;8.80;99.90;;;;;;5102932;28;20549;-39
2024/01/22 08:07:03;;;;;;;5.82;2.10;;;8.80;99.90;;;;;;5106685;28;20430;-39
2024/01/22 08:09:31;;;;;;;2.53;1.83;;;8.80;99.90;;;;;;5107844;28;20042;-41
2024/01/22 08:11:57;;;;;;;5.32;2.08;;;8.80;99.90;;;;;;5106612;28;20015;-40
2024/01/22 08:14:23;;;;;;;3.10;1.98;;;8.90;99.90;;;;;;5107365;28;20065;-39
2024/01/22 08:16:49;;;;;;;6.38;2.17;;;9.00;99.90;;;;;;5107359;28;20375;-39
2024/01/22 08:19:17;;;;;;;3.60;1.95;;;9.00;99.90;;;;;;5106559;28;20024;-40
2024/01/22 08:21:43;;;;;;;7.07;2.90;;;8.90;99.90;;;;;;5107287;27;20020;-39
2024/01/22 08:24:09;;;;;;;6.10;1.70;;;9.00;99.90;;;;;;5105782;28;20032;-39
2024/01/22 08:26:34;;;;;;;2.72;1.80;;;9.00;99.90;;;;;;5094777;28;20602;-39
2024/01/22 08:29:00;;;;;;;2.97;1.85;;;9.00;99.90;;;;;;5106353;28;20103;-40
2024/01/22 08:31:25;;;;;;;4.63;1.85;;;9.10;99.90;;;;;;5107631;28;20020;-40
2024/01/22 08:33:51;;;;;;;3.58;1.80;;;9.10;99.90;;;;;;5105964;28;20098;-40
2024/01/22 08:36:16;;;;;;;2.55;1.65;;;9.10;99.90;;;;;;5104833;28;20024;-40
2024/01/22 08:38:42;;;;;;;3.83;1.88;;;9.10;99.90;;;;;;5105558;28;20023;-40
2024/01/22 08:41:08;;;;;;;3.22;1.80;;;9.20;99.90;;;;;;5104552;28;20020;-39
2024/01/22 08:43:34;;;;;;;3.58;1.50;;;9.20;99.90;;;;;;5098399;28;20101;-40
2024/01/22 08:46:00;;;;;;;4.05;1.80;;;9.20;99.90;;;;;;5105110;28;20392;-40
2024/01/22 08:48:26;;;;;;;3.97;1.88;;;9.20;99.90;;;;;;5085264;28;20027;-40
2024/01/22 08:50:52;;;;;;;2.83;1.90;;;9.20;99.90;;;;;;5102128;28;20160;-40
2024/01/22 08:53:17;;;;;;;5.65;1.70;;;9.20;99.90;;;;;;5100657;28;20427;-40
2024/01/22 08:55:43;;;;;;;5.20;1.80;;;9.30;99.90;;;;;;5107380;28;20400;-39
2024/01/22 08:58:09;;;;;;;4.82;2.10;;;9.40;99.90;;;;;;5097342;28;20110;-39
2024/01/22 09:00:35;;;;;;;3.78;1.65;;;9.50;99.90;;;;;;5106849;28;20026;-42
2024/01/22 09:03:01;;;;;;;4.10;1.50;;;9.50;99.90;;;;;;5099534;28;20485;-39
2024/01/22 09:05:26;;;;;;;5.82;2.17;;;9.50;99.90;;;;;;5105859;28;20020;-39
2024/01/22 09:07:52;;;;;;;3.90;1.98;;;9.50;99.90;;;;;;5101438;28;20115;-39
2024/01/22 09:10:18;;;;;;;3.65;1.73;;;9.60;99.90;;;;;;5105688;28;20450;-40
2024/01/22 09:12:45;;;;;;;3.00;1.73;;;9.60;99.90;;;;;;5103070;28;20444;-39
2024/01/22 09:15:11;;;;;;;2.85;1.52;;;9.60;99.90;;;;;;5104799;28;20019;-40
2024/01/22 09:17:37;;;;;;;3.65;2.00;;;9.60;99.90;;;;;;5079945;28;20052;-39
2024/01/22 09:20:04;;;;;;;3.85;2.22;;;9.50;99.90;;;;;;5079331;28;20048;-39
2024/01/22 09:22:29;;;;;;;3.40;2.03;;;9.60;99.90;;;;;;5107753;28;20043;-39
2024/01/22 09:24:55;;;;;;;2.35;1.63;;;9.60;99.90;;;;;;5104285;28;20054;-39
2024/01/22 09:27:21;;;;;;;4.50;1.83;;;9.60;99.90;;;;;;5102990;28;20034;-39
2024/01/22 09:29:48;;;;;;;4.22;1.88;;;9.80;99.90;;;;;;5105291;28;20110;-38
2024/01/22 09:32:15;;;;;;;2.20;1.52;;;9.90;99.90;;;;;;5106405;28;20068;-39
2024/01/22 09:34:40;;;;;;;3.95;1.30;;;10.00;99.90;;;;;;5105349;28;20035;-39
2024/01/22 09:37:06;;;;;;;5.20;1.40;;;10.00;99.90;;;;;;5107001;28;20095;-39
2024/01/22 09:39:32;;;;;;;2.13;1.30;;;10.10;99.90;;;;;;5105437;28;20085;-39
2024/01/22 09:41:59;;;;;;;4.50;1.48;;;10.10;99.90;;;;;;5106916;28;20065;-39
2024/01/22 09:44:25;;;;;;;3.63;1.48;;;10.00;99.90;;;;;;5105985;28;20023;-39
2024/01/22 09:46:52;;;;;;;2.67;1.25;;;10.00;99.90;;;;;;5107313;28;20027;-39
2024/01/22 09:49:18;;;;;;;3.40;1.63;;;9.90;99.90;;;;;;5105341;28;20059;-39
2024/01/22 09:51:44;;;;;;;2.60;1.30;;;9.80;99.90;;;;;;5108443;28;20555;-39
2024/01/22 09:54:18;;;;;;;3.63;1.42;;;9.70;99.90;;;;;;5110091;28;20023;-39
2024/01/22 09:56:53;;;;;;;6.60;1.80;;;9.70;99.90;;;;;;5111760;28;20349;-40
2024/01/22 09:59:24;;;;;;;5.38;1.63;;;9.80;99.90;;;;;;5109972;28;20020;-40
2024/01/22 10:01:52;;;;;;;2.83;1.65;;;9.80;99.90;;;;;;5108410;28;20084;-39
2024/01/22 10:04:18;;;;;;;2.97;1.70;;;9.80;99.90;;;;;;5110994;28;20037;-40
2024/01/22 10:06:45;;;;;;;2.33;1.48;;;9.70;99.90;;;;;;5109314;28;20026;-39
2024/01/22 10:09:17;;;;;;;2.47;1.45;;;9.70;99.90;;;;;;5103412;28;20446;-39
2024/01/22 10:11:44;;;;;;;9.27;1.58;;;9.70;99.90;;;;;;5111606;28;20543;-40
2024/01/22 10:14:10;;;;;;;4.40;1.58;;;9.70;99.90;;;;;;5111460;28;20020;-39
2024/01/22 10:16:39;;;;;;;3.25;1.30;;;9.70;99.90;;;;;;5111976;28;20068;-39
2024/01/22 10:19:08;;;;;;;1.55;1.17;;;9.70;99.90;;;;;;5111533;28;20109;-39
2024/01/22 10:21:35;;;;;;;3.50;1.80;;;9.80;99.90;;;;;;5111038;28;20012;-39
2024/01/22 10:24:06;;;;;;;2.72;1.58;;;9.90;99.90;;;;;;5111080;28;20015;-40
2024/01/22 10:26:32;;;;;;;4.07;1.27;;;9.90;99.90;;;;;;5096780;28;20026;-39
2024/01/22 10:29:19;;;;;;;2.63;1.58;;;9.90;99.90;;;;;;5111347;28;20023;-40
2024/01/22 10:32:00;;;;;;;2.97;1.00;;;9.90;99.90;;;;;;5111352;28;20075;-40
2024/01/22 10:34:31;;;;;;;2.90;1.35;;;9.90;99.90;;;;;;5111665;27;20400;-39
2024/01/22 10:37:06;;;;;;;4.18;1.30;;;9.90;99.90;;;;;;5111540;28;20023;-39
2024/01/22 10:39:33;;;;;;;2.42;1.42;;;9.90;99.90;;;;;;5111092;27;20039;-40
2024/01/22 10:42:16;;;;;;;3.97;1.27;;;9.80;99.90;;;;;;5110934;28;20493;-40
2024/01/22 10:44:46;;;;;;;2.63;1.63;;;9.80;99.90;;;;;;5111290;28;20030;-41
2024/01/22 10:47:13;;;;;;;2.60;1.50;;;9.80;99.90;;;;;;5109545;28;20043;-39
2024/01/22 10:49:41;;;;;;;3.25;1.20;;;9.80;99.90;;;;;;5111184;28;20062;-39
2024/01/22 10:52:06;;;;;;;2.75;1.35;;;9.80;99.90;;;;;;5101690;28;20035;-39
2024/01/22 10:54:34;;;;;;;2.67;1.50;;;9.90;99.90;;;;;;5111187;28;20385;-39
2024/01/22 10:57:28;;;;;;;5.00;1.98;;;10.00;99.90;;;;;;5102130;28;20497;-39
2024/01/22 10:59:58;;;;;;;3.45;1.50;;;10.10;99.90;;;;;;5084432;28;20028;-40
2024/01/22 11:02:30;;;;;;;2.70;1.38;;;10.20;99.90;;;;;;5090216;28;20008;-40
2024/01/22 11:05:04;;;;;;;5.55;1.73;;;10.40;99.90;;;;;;5091073;28;20024;-40
2024/01/22 11:07:32;;;;;;;2.72;1.70;;;10.50;99.90;;;;;;5082991;28;20032;-40
2024/01/22 11:09:59;;;;;;;2.75;1.45;;;10.40;99.90;;;;;;5091072;28;20069;-40
2024/01/22 11:12:30;;;;;;;2.63;1.73;;;10.40;99.90;;;;;;5090407;28;20023;-39
2024/01/22 11:14:56;;;;;;;3.60;1.90;;;10.30;99.90;;;;;;5090251;28;20020;-40
2024/01/22 11:17:21;;;;;;;3.65;1.70;;;10.30;99.90;;;;;;5089407;28;20036;-39
2024/01/22 11:19:47;;;;;;;3.25;1.60;;;10.30;99.90;;;;;;5090448;28;20059;-40
2024/01/22 11:22:23;;;;;;;4.95;1.95;;;10.30;99.90;;;;;;5090226;28;20488;-39
2024/01/22 11:25:01;;;;;;;5.07;1.90;;;10.20;99.90;;;;;;5090748;28;20043;-39
2024/01/22 11:27:40;;;;;;;7.32;2.47;;;10.20;99.90;;;;;;5082697;28;20462;-39
2024/01/22 11:30:21;;;;;;;3.92;1.70;;;10.20;99.90;;;;;;5090908;28;20028;-39
2024/01/22 11:32:47;;;;;;;5.50;1.80;;;10.20;99.90;;;;;;5091160;28;20020;-39
2024/01/22 11:35:30;;;;;;;2.90;1.40;;;10.20;99.90;;;;;;5090783;28;20105;-39
2024/01/22 11:37:56;;;;;;;3.50;1.60;;;10.20;99.90;;;;;;5090636;28;20031;-39
2024/01/22 11:40:52;;;;;;;7.78;1.65;;;10.20;99.90;;;;;;5090485;28;20035;-39
2024/01/22 11:43:20;;;;;;;2.03;1.42;;;10.20;99.90;;;;;;5091202;28;20072;-40
2024/01/22 11:45:46;;;;;;;2.75;1.50;;;10.20;99.90;;;;;;5090927;28;20016;-39
2024/01/22 11:48:20;;;;;;;5.03;1.50;;;10.20;99.90;;;;;;5090441;28;20040;-40
2024/01/22 11:51:04;;;;;;;7.55;2.30;;;10.20;99.90;;;;;;5090087;28;20222;-40
2024/01/22 11:53:30;;;;;;;2.03;1.23;;;10.30;99.90;;;;;;5088969;28;20115;-41
2024/01/22 11:55:59;;;;;;;3.67;1.40;;;10.30;99.90;;;;;;5098294;28;20446;-40
2024/01/22 11:58:25;;;;;;;2.55;1.40;;;10.40;99.90;;;;;;5092074;28;20127;-41
2024/01/22 12:00:52;;;;;;;3.47;1.40;;;10.40;99.90;;;;;;5096332;28;20096;-41
2024/01/22 12:03:31;;;;;;;4.28;1.75;;;10.40;99.90;;;;;;5102064;28;20481;-40
2024/01/22 12:06:07;;;;;;;2.88;1.52;;;10.30;99.90;;;;;;5095032;28;20107;-41
2024/01/22 12:08:34;;;;;;;7.25;1.60;;;10.40;99.90;;;;;;5086827;28;20099;-39
2024/01/22 12:11:15;;;;;;;6.45;1.88;;;10.30;99.90;;;;;;5089976;28;20032;-39
2024/01/22 12:13:42;;;;;;;2.55;1.63;;;10.40;99.90;;;;;;5089772;28;20314;-40
2024/01/22 12:16:14;;;;;;;3.25;1.73;;;10.40;99.90;;;;;;5088863;28;20028;-39
2024/01/22 12:18:40;;;;;;;4.50;2.10;;;10.30;99.90;;;;;;5089920;28;20020;-39
2024/01/22 12:21:06;;;;;;;4.50;1.98;;;10.30;99.90;;;;;;5090017;28;20488;-39
2024/01/22 12:23:34;;;;;;;7.07;1.85;;;10.30;99.90;;;;;;5090012;28;20222;-39
2024/01/22 12:26:00;;;;;;;7.07;2.50;;;10.30;99.90;;;;;;5089978;28;20024;-40
2024/01/22 12:28:26;;;;;;;5.43;2.03;;;10.30;99.90;;;;;;5090858;28;20069;-39
2024/01/22 12:31:02;;;;;;;4.63;1.50;;;10.30;99.90;;;;;;5089984;28;20497;-40
2024/01/22 12:33:32;;;;;;;4.63;1.48;;;10.30;99.90;;;;;;5089717;28;20024;-40
2024/01/22 12:36:11;;;;;;;4.93;2.07;;;10.30;99.90;;;;;;5090357;28;20073;-40
2024/01/22 12:38:51;;;;;;;4.97;1.98;;;10.30;99.90;;;;;;5089108;28;20020;-40
2024/01/22 12:41:18;;;;;;;2.92;1.33;;;10.30;99.90;;;;;;5089685;28;20031;-39
2024/01/22 12:43:44;;;;;;;5.85;2.03;;;10.40;99.90;;;;;;5089288;28;20103;-41
2024/01/22 12:46:18;;;;;;;4.35;2.08;;;10.40;99.90;;;;;;5088666;28;20481;-40
2024/01/22 12:48:47;;;;;;;6.15;2.28;;;10.40;99.90;;;;;;5089829;28;20392;-40
2024/01/22 12:51:14;;;;;;;5.43;1.88;;;10.50;99.90;;;;;;5088383;28;20115;-40
2024/01/22 12:53:41;;;;;;;4.47;2.28;;;10.50;99.90;;;;;;5089420;28;20469;-41